createdAt,value
2022-08-16T00:01:42.671Z,61.34
2022-08-16T00:04:11.528Z,61.38
2022-08-16T00:06:39.304Z,61.34
2022-08-16T00:09:06.674Z,61.27
2022-08-16T00:11:33.375Z,61.28
2022-08-16T00:14:00.233Z,61.26
2022-08-16T00:17:06.336Z,61.23
2022-08-16T00:19:19.121Z,61.28
2022-08-16T00:21:45.902Z,61.28
2022-08-16T00:24:13.532Z,61.27
2022-08-16T00:26:58.183Z,61.00
2022-08-16T00:29:25.102Z,61.14
2022-08-16T00:32:00.933Z,61.15
2022-08-16T00:34:44.726Z,60.92
2022-08-16T00:37:20.378Z,61.12
2022-08-16T00:39:57.208Z,61.12
2022-08-16T00:42:30.065Z,61.26
2022-08-16T00:45:06.359Z,61.25
2022-08-16T00:47:38.783Z,61.15
2022-08-16T00:50:11.377Z,61.17
2022-08-16T00:52:38.787Z,61.04
2022-08-16T00:55:17.738Z,61.25
2022-08-16T00:57:59.815Z,60.93
2022-08-16T01:00:29.517Z,60.89
2022-08-16T01:03:00.201Z,60.85
2022-08-16T01:05:28.289Z,61.02
2022-08-16T01:07:55.413Z,60.87
2022-08-16T01:10:32.293Z,61.01
2022-08-16T01:13:05.391Z,61.06
2022-08-16T01:15:34.814Z,61.01
2022-08-16T01:18:04.748Z,61.17
2022-08-16T01:20:37.773Z,61.09
2022-08-16T01:23:11.574Z,61.06
2022-08-16T01:25:44.527Z,61.07
2022-08-16T01:28:30.806Z,61.04
2022-08-16T01:30:59.351Z,61.16
2022-08-16T01:33:33.317Z,61.06
2022-08-16T01:36:11.775Z,60.97
2022-08-16T01:38:41.343Z,61.05
2022-08-16T01:41:19.851Z,61.11
2022-08-16T01:43:54.184Z,61.06
2022-08-16T01:46:37.622Z,61.36
2022-08-16T01:49:08.338Z,61.10
2022-08-16T01:51:34.890Z,61.01
2022-08-16T01:54:06.484Z,61.12
2022-08-16T01:56:34.977Z,61.25
2022-08-16T01:59:05.424Z,61.11
2022-08-16T02:01:32.547Z,61.06
2022-08-16T02:04:11.360Z,61.05
2022-08-16T02:06:39.527Z,61.08
2022-08-16T02:09:14.372Z,61.02
2022-08-16T02:11:48.402Z,61.06
2022-08-16T02:14:21.774Z,61.16
2022-08-16T02:16:48.699Z,61.11
2022-08-16T02:19:16.153Z,61.20
2022-08-16T02:22:09.125Z,61.02
2022-08-16T02:24:32.672Z,61.23
2022-08-16T02:27:09.385Z,61.14
2022-08-16T02:29:36.003Z,61.16
2022-08-16T02:32:49.958Z,61.15
2022-08-16T02:34:50.254Z,61.06
2022-08-16T02:37:20.886Z,61.00
2022-08-16T02:39:47.640Z,61.06
2022-08-16T02:42:22.129Z,61.06
2022-08-16T02:44:49.008Z,61.11
2022-08-16T02:47:25.276Z,61.11
2022-08-16T02:49:59.203Z,61.13
2022-08-16T02:52:39.488Z,61.19
2022-08-16T02:55:11.228Z,61.17
2022-08-16T02:57:42.336Z,61.14
2022-08-16T03:00:33.989Z,61.11
2022-08-16T03:03:01.919Z,61.08
2022-08-16T03:05:31.596Z,61.01
2022-08-16T03:07:58.687Z,60.93
2022-08-16T03:10:33.267Z,61.07
2022-08-16T03:13:01.849Z,60.99
2022-08-16T03:15:30.901Z,60.92
2022-08-16T03:17:57.841Z,61.00
2022-08-16T03:20:31.990Z,60.95
2022-08-16T03:22:59.303Z,60.97
2022-08-16T03:25:25.821Z,61.13
2022-08-16T03:28:12.226Z,61.09
2022-08-16T03:30:39.966Z,60.96
2022-08-16T03:33:07.453Z,61.06
2022-08-16T03:35:37.278Z,60.97
2022-08-16T03:38:33.052Z,60.98
2022-08-16T03:40:57.851Z,60.97
2022-08-16T03:43:51.897Z,60.99
2022-08-16T03:46:13.276Z,61.07
2022-08-16T03:49:00.027Z,61.03
2022-08-16T03:51:27.115Z,60.86
2022-08-16T03:53:57.839Z,61.00
2022-08-16T03:56:28.271Z,61.09
2022-08-16T03:58:58.878Z,60.96
2022-08-16T04:01:29.114Z,60.99
2022-08-16T04:03:56.228Z,61.02
2022-08-16T04:06:22.815Z,61.04
2022-08-16T04:08:49.267Z,61.03
2022-08-16T04:11:16.378Z,60.99
2022-08-16T04:14:01.681Z,61.04
2022-08-16T04:16:32.195Z,60.99
2022-08-16T04:19:02.323Z,60.95
2022-08-16T04:21:31.062Z,61.01
2022-08-16T04:23:58.728Z,60.95
2022-08-16T04:26:25.232Z,60.92
2022-08-16T04:29:16.971Z,60.96
2022-08-16T04:31:46.978Z,60.96
2022-08-16T04:34:24.812Z,60.83
2022-08-16T04:36:51.577Z,60.83
2022-08-16T04:39:20.027Z,60.86
2022-08-16T04:41:50.692Z,60.96
2022-08-16T04:44:32.686Z,60.91
2022-08-16T04:47:21.135Z,61.03
2022-08-16T04:49:50.355Z,60.98
2022-08-16T04:52:34.679Z,61.00
2022-08-16T04:55:03.831Z,61.04
2022-08-16T04:57:30.510Z,60.93
2022-08-16T04:59:57.104Z,60.98
2022-08-16T05:02:51.818Z,60.79
2022-08-16T05:05:16.949Z,60.96
2022-08-16T05:07:59.594Z,60.98
2022-08-16T05:10:26.924Z,61.05
2022-08-16T05:12:54.174Z,61.16
2022-08-16T05:15:20.974Z,61.09
2022-08-16T05:17:58.681Z,61.28
2022-08-16T05:20:39.433Z,61.29
2022-08-16T05:23:12.261Z,61.40
2022-08-16T05:25:48.241Z,61.24
2022-08-16T05:28:15.272Z,61.42
2022-08-16T05:30:41.752Z,61.56
2022-08-16T05:33:16.243Z,61.49
2022-08-16T05:35:43.566Z,61.57
2022-08-16T05:38:32.879Z,61.61
2022-08-16T05:41:00.286Z,61.54
2022-08-16T05:43:27.807Z,62.03
2022-08-16T05:46:00.160Z,61.81
2022-08-16T05:48:27.991Z,61.97
2022-08-16T05:50:54.445Z,61.86
2022-08-16T05:53:22.254Z,61.93
2022-08-16T05:55:51.710Z,61.92
2022-08-16T05:58:28.978Z,62.08
2022-08-16T06:00:59.390Z,62.20
2022-08-16T06:03:25.934Z,62.09
2022-08-16T06:06:00.585Z,62.15
2022-08-16T06:08:32.325Z,62.23
2022-08-16T06:11:11.350Z,62.33
2022-08-16T06:13:42.041Z,62.37
2022-08-16T06:16:09.421Z,62.33
2022-08-16T06:18:45.301Z,62.40
2022-08-16T06:21:13.657Z,62.40
2022-08-16T06:23:49.466Z,62.42
2022-08-16T06:26:21.035Z,62.42
2022-08-16T06:28:47.564Z,62.35
2022-08-16T06:31:17.588Z,62.38
2022-08-16T06:33:51.762Z,62.39
2022-08-16T06:36:20.982Z,62.41
2022-08-16T06:38:52.254Z,62.49
2022-08-16T06:41:27.211Z,62.37
2022-08-16T06:43:54.406Z,62.61
2022-08-16T06:46:31.887Z,62.69
2022-08-16T06:48:58.936Z,62.57
2022-08-16T06:51:46.684Z,62.62
2022-08-16T06:54:13.986Z,62.69
2022-08-16T06:56:41.068Z,62.49
2022-08-16T06:59:09.029Z,62.85
2022-08-16T07:01:44.381Z,62.64
2022-08-16T07:04:33.083Z,62.71
2022-08-16T07:07:01.856Z,62.58
2022-08-16T07:09:30.659Z,62.60
2022-08-16T07:11:57.347Z,62.72
2022-08-16T07:14:30.682Z,62.81
2022-08-16T07:16:59.176Z,62.69
2022-08-16T07:20:01.587Z,62.82
2022-08-16T07:22:38.079Z,62.78
2022-08-16T07:25:02.946Z,62.81
2022-08-16T07:27:32.144Z,62.96
2022-08-16T07:30:00.759Z,62.90
2022-08-16T07:32:29.390Z,62.80
2022-08-16T07:34:56.272Z,63.00
2022-08-16T07:37:24.167Z,62.99
2022-08-16T07:39:51.710Z,63.15
2022-08-16T07:42:20.243Z,63.21
2022-08-16T07:44:53.089Z,63.03
2022-08-16T07:47:24.585Z,63.20
2022-08-16T07:49:58.986Z,63.09
2022-08-16T07:52:29.893Z,63.37
2022-08-16T07:54:56.542Z,63.18
2022-08-16T07:57:23.991Z,63.46
2022-08-16T07:59:51.264Z,63.17
2022-08-16T08:02:20.513Z,63.01
2022-08-16T08:04:47.466Z,63.34
2022-08-16T08:07:16.374Z,63.23
2022-08-16T08:09:44.367Z,63.13
2022-08-16T08:12:32.708Z,63.26
2022-08-16T08:14:59.637Z,63.31
2022-08-16T08:17:43.271Z,63.32
2022-08-16T08:20:13.275Z,63.44
2022-08-16T08:22:50.473Z,63.26
2022-08-16T08:25:18.560Z,63.31
2022-08-16T08:27:45.722Z,63.29
2022-08-16T08:30:51.372Z,63.28
2022-08-16T08:33:01.074Z,63.24
2022-08-16T08:35:28.438Z,63.25
2022-08-16T08:37:56.448Z,63.26
2022-08-16T08:40:27.222Z,63.33
2022-08-16T08:43:00.134Z,63.18
2022-08-16T08:48:35.002Z,62.99
2022-08-16T08:51:03.550Z,62.95
2022-08-16T08:53:30.857Z,62.90
2022-08-16T08:55:59.481Z,62.93
2022-08-16T08:58:26.003Z,62.71
2022-08-16T09:01:02.131Z,62.77
2022-08-16T09:03:28.916Z,62.84
2022-08-16T09:05:59.329Z,62.79
2022-08-16T09:08:27.441Z,62.84
2022-08-16T09:10:58.723Z,62.68
2022-08-16T09:13:32.648Z,62.77
2022-08-16T09:15:59.895Z,62.59
2022-08-16T09:18:35.742Z,62.55
2022-08-16T09:21:04.052Z,62.67
2022-08-16T09:23:30.813Z,62.59
2022-08-16T09:26:03.239Z,62.68
2022-08-16T09:29:15.527Z,62.59
2022-08-16T09:31:40.995Z,62.56
2022-08-16T09:34:07.951Z,62.62
2022-08-16T09:36:34.708Z,62.68
2022-08-16T09:39:01.548Z,62.50
2022-08-16T09:41:29.469Z,62.56
2022-08-16T09:44:00.794Z,62.15
2022-08-16T09:46:48.335Z,62.39
2022-08-16T09:49:19.741Z,62.29
2022-08-16T09:51:47.281Z,62.20
2022-08-16T09:54:17.088Z,62.31
2022-08-16T09:56:53.572Z,62.26
2022-08-16T09:59:25.279Z,62.25
2022-08-16T10:01:53.053Z,61.90
2022-08-16T10:04:29.276Z,61.64
2022-08-16T10:09:25.103Z,61.50
2022-08-16T10:11:51.563Z,61.62
2022-08-16T10:14:19.941Z,61.48
2022-08-16T10:16:59.591Z,61.44
2022-08-16T10:19:29.548Z,61.39
2022-08-16T10:21:59.251Z,61.30
2022-08-16T10:24:28.001Z,61.43
2022-08-16T10:27:20.517Z,61.41
2022-08-16T10:30:00.360Z,61.01
2022-08-16T10:32:30.678Z,61.02
2022-08-16T10:34:59.693Z,61.09
2022-08-16T10:37:32.330Z,60.96
2022-08-16T10:40:05.529Z,60.84
2022-08-16T10:42:32.089Z,60.90
2022-08-16T10:44:58.673Z,60.86
2022-08-16T10:47:25.218Z,60.77
2022-08-16T10:49:53.390Z,60.80
2022-08-16T10:52:20.286Z,60.84
2022-08-16T10:57:33.400Z,60.72
2022-08-16T11:00:02.206Z,60.65
2022-08-16T11:02:58.249Z,60.67
2022-08-16T11:05:17.732Z,60.66
2022-08-16T11:07:53.350Z,60.34
2022-08-16T11:13:57.191Z,60.33
2022-08-16T11:16:00.930Z,60.18
2022-08-16T11:19:03.501Z,59.95
2022-08-16T11:21:29.085Z,60.02
2022-08-16T11:23:57.946Z,59.85
2022-08-16T11:26:25.842Z,59.94
2022-08-16T11:31:38.859Z,59.45
2022-08-16T11:34:05.333Z,59.31
2022-08-16T11:36:35.809Z,59.24
2022-08-16T11:39:02.469Z,59.13
2022-08-16T11:41:32.321Z,59.15
2022-08-16T11:43:59.012Z,59.05
2022-08-16T11:46:43.537Z,58.90
2022-08-16T11:49:14.145Z,58.91
2022-08-16T11:51:42.770Z,58.89
2022-08-16T11:54:20.541Z,58.72
2022-08-16T11:56:52.351Z,58.67
2022-08-16T11:59:24.357Z,58.72
2022-08-16T12:02:00.031Z,58.49
2022-08-16T12:04:30.818Z,58.46
2022-08-16T12:06:58.616Z,58.30
2022-08-16T12:09:25.464Z,58.02
2022-08-16T12:11:56.651Z,58.11
2022-08-16T12:14:23.332Z,58.01
2022-08-16T12:16:55.475Z,57.87
2022-08-16T12:19:35.279Z,57.77
2022-08-16T12:22:05.496Z,57.92
2022-08-16T12:24:32.950Z,57.50
2022-08-16T12:27:00.496Z,57.48
2022-08-16T12:29:29.444Z,57.53
2022-08-16T12:32:00.987Z,57.50
2022-08-16T12:34:38.747Z,57.58
2022-08-16T12:37:18.747Z,57.31
2022-08-16T12:39:47.841Z,57.29
2022-08-16T12:42:18.000Z,57.29
2022-08-16T12:44:44.448Z,57.02
2022-08-16T12:47:12.338Z,56.72
2022-08-16T12:49:42.272Z,56.82
2022-08-16T12:52:08.994Z,56.74
2022-08-16T12:54:36.893Z,56.57
2022-08-16T12:57:03.626Z,56.54
2022-08-16T12:59:31.118Z,56.17
2022-08-16T13:01:58.198Z,56.02
2022-08-16T13:04:26.118Z,56.05
2022-08-16T13:06:53.384Z,55.93
2022-08-16T13:09:20.279Z,56.12
2022-08-16T13:12:04.516Z,55.74
2022-08-16T13:14:34.422Z,55.89
2022-08-16T13:17:02.697Z,55.88
2022-08-16T13:19:55.889Z,55.98
2022-08-16T13:22:19.841Z,55.96
2022-08-16T13:24:46.691Z,55.74
2022-08-16T13:27:14.453Z,55.50
2022-08-16T13:29:43.920Z,55.67
2022-08-16T13:32:10.745Z,55.56
2022-08-16T13:34:57.165Z,55.65
2022-08-16T13:37:23.716Z,55.45
2022-08-16T13:39:52.767Z,55.18
2022-08-16T13:42:20.701Z,55.04
2022-08-16T13:44:56.513Z,54.82
2022-08-16T13:47:25.081Z,54.85
2022-08-16T13:49:56.962Z,54.93
2022-08-16T13:52:25.003Z,55.05
2022-08-16T13:54:51.769Z,55.05
2022-08-16T13:57:18.245Z,54.97
2022-08-16T13:59:50.190Z,54.93
2022-08-16T14:02:17.254Z,54.72
2022-08-16T14:04:44.400Z,54.87
2022-08-16T14:07:13.589Z,54.72
2022-08-16T14:09:51.066Z,55.01
2022-08-16T14:12:24.327Z,54.85
2022-08-16T14:14:56.391Z,54.80
2022-08-16T14:17:24.806Z,54.83
2022-08-16T14:19:51.480Z,54.93
2022-08-16T14:22:31.034Z,55.09
2022-08-16T14:24:59.483Z,55.02
2022-08-16T14:27:28.721Z,55.08
2022-08-16T14:29:58.221Z,54.55
2022-08-16T14:32:33.382Z,54.41
2022-08-16T14:35:02.346Z,54.56
2022-08-16T14:37:29.322Z,54.47
2022-08-16T14:39:58.777Z,54.25
2022-08-16T14:42:25.875Z,54.28
2022-08-16T14:44:53.173Z,54.28
2022-08-16T14:47:22.027Z,54.37
2022-08-16T14:49:48.644Z,54.40
2022-08-16T14:52:44.382Z,54.50
2022-08-16T14:55:09.487Z,54.56
2022-08-16T14:57:38.235Z,54.67
2022-08-16T15:00:09.533Z,54.43
2022-08-16T15:02:40.563Z,54.51
2022-08-16T15:05:10.216Z,54.60
2022-08-16T15:07:39.993Z,54.63
2022-08-16T15:10:07.838Z,54.63
2022-08-16T15:12:45.887Z,54.61
2022-08-16T15:15:16.531Z,54.62
2022-08-16T15:17:55.816Z,54.70
2022-08-16T15:20:26.369Z,54.72
2022-08-16T15:22:53.612Z,54.76
2022-08-16T15:25:23.837Z,54.71
2022-08-16T15:27:56.531Z,54.83
2022-08-16T15:30:48.125Z,54.79
2022-08-16T15:33:16.471Z,54.78
2022-08-16T15:35:43.940Z,54.73
2022-08-16T15:38:10.644Z,54.90
2022-08-16T15:40:58.772Z,54.87
2022-08-16T15:43:33.852Z,54.90
2022-08-16T15:46:07.711Z,54.82
2022-08-16T15:48:36.519Z,54.95
2022-08-16T15:51:07.771Z,54.85
2022-08-16T15:53:41.895Z,54.75
2022-08-16T15:56:10.155Z,54.95
2022-08-16T15:58:41.022Z,54.68
2022-08-16T16:01:09.925Z,54.88
2022-08-16T16:03:38.256Z,54.82
2022-08-16T16:06:05.466Z,54.62
2022-08-16T16:08:32.834Z,54.55
2022-08-16T16:11:03.293Z,54.50
2022-08-16T16:13:30.818Z,54.40
2022-08-16T16:15:59.365Z,54.59
2022-08-16T16:18:26.329Z,54.78
2022-08-16T16:20:56.045Z,54.44
2022-08-16T16:23:25.107Z,54.44
2022-08-16T16:25:53.497Z,54.40
2022-08-16T16:28:51.270Z,54.08
2022-08-16T16:31:12.842Z,54.19
2022-08-16T16:33:41.791Z,54.19
2022-08-16T16:36:14.480Z,54.21
2022-08-16T16:38:42.717Z,54.10
2022-08-16T16:41:10.100Z,54.10
2022-08-16T16:43:37.216Z,54.04
2022-08-16T16:46:32.705Z,54.09
2022-08-16T16:48:55.109Z,53.93
2022-08-16T16:51:22.961Z,53.85
2022-08-16T16:53:56.153Z,53.99
2022-08-16T16:56:30.076Z,54.11
2022-08-16T16:59:01.769Z,54.11
2022-08-16T17:01:35.171Z,54.23
2022-08-16T17:04:22.778Z,54.16
2022-08-16T17:06:53.648Z,54.21
2022-08-16T17:09:24.013Z,54.11
2022-08-16T17:11:54.922Z,54.19
2022-08-16T17:14:33.125Z,54.14
2022-08-16T17:17:02.564Z,53.94
2022-08-16T17:19:31.719Z,54.11
2022-08-16T17:22:00.033Z,54.04
2022-08-16T17:24:31.368Z,54.16
2022-08-16T17:26:59.707Z,53.89
2022-08-16T17:29:31.190Z,54.10
2022-08-16T17:32:20.060Z,54.10
2022-08-16T17:34:46.641Z,54.05
2022-08-16T17:37:22.189Z,53.97
2022-08-16T17:40:06.109Z,53.92
2022-08-16T17:42:48.095Z,54.06
2022-08-16T17:45:14.726Z,53.96
2022-08-16T17:47:41.229Z,54.04
2022-08-16T17:50:08.370Z,53.93
2022-08-16T17:52:36.179Z,54.02
2022-08-16T17:55:20.894Z,54.00
2022-08-16T17:57:47.480Z,53.99
2022-08-16T18:00:20.115Z,54.08
2022-08-16T18:02:47.576Z,53.99
2022-08-16T18:05:14.050Z,54.00
2022-08-16T18:07:42.699Z,53.99
2022-08-16T18:10:11.425Z,54.17
2022-08-16T18:12:50.908Z,53.98
2022-08-16T18:15:24.170Z,53.98
2022-08-16T18:17:51.843Z,54.15
2022-08-16T18:20:20.336Z,54.08
2022-08-16T18:22:48.381Z,53.99
2022-08-16T18:25:15.009Z,54.11
2022-08-16T18:27:41.507Z,53.94
2022-08-16T18:30:08.430Z,54.02
2022-08-16T18:32:35.109Z,54.00
2022-08-16T18:35:01.561Z,54.06
2022-08-16T18:37:28.057Z,53.93
2022-08-16T18:39:56.681Z,53.99
2022-08-16T18:42:24.704Z,54.05
2022-08-16T18:44:51.132Z,53.95
2022-08-16T18:47:17.572Z,54.06
2022-08-16T18:49:44.008Z,53.87
2022-08-16T18:52:14.022Z,53.94
2022-08-16T18:55:01.488Z,54.01
2022-08-16T18:57:30.925Z,53.91
2022-08-16T18:59:57.386Z,53.99
2022-08-16T19:02:57.020Z,53.99
2022-08-16T19:05:14.517Z,53.98
2022-08-16T19:07:41.025Z,53.91
2022-08-16T19:10:08.691Z,54.00
2022-08-16T19:12:47.104Z,54.18
2022-08-16T19:15:16.282Z,53.95
2022-08-16T19:17:43.746Z,54.07
2022-08-16T19:20:12.403Z,54.10
2022-08-16T19:23:02.078Z,54.42
2022-08-16T19:25:47.395Z,53.98
2022-08-16T19:28:49.257Z,54.07
2022-08-16T19:31:07.631Z,54.20
2022-08-16T19:33:34.128Z,54.20
2022-08-16T19:36:01.011Z,54.28
2022-08-16T19:38:28.905Z,54.23
2022-08-16T19:40:55.434Z,54.22
2022-08-16T19:43:23.218Z,54.28
2022-08-16T19:45:51.559Z,54.37
2022-08-16T19:48:17.993Z,54.46
2022-08-16T19:50:44.550Z,54.35
2022-08-16T19:53:19.178Z,54.41
2022-08-16T19:55:47.423Z,54.50
2022-08-16T19:58:14.865Z,54.79
2022-08-16T20:00:44.006Z,54.68
2022-08-16T20:03:15.617Z,54.42
2022-08-16T20:05:43.302Z,54.25
2022-08-16T20:08:10.942Z,53.95
2022-08-16T20:10:38.394Z,54.04
2022-08-16T20:13:11.557Z,53.64
2022-08-16T20:15:40.942Z,53.11
2022-08-16T20:18:12.691Z,53.14
2022-08-16T20:20:51.684Z,52.79
2022-08-16T20:23:24.496Z,52.80
2022-08-16T20:25:53.207Z,52.30
2022-08-16T20:28:40.753Z,52.06
2022-08-16T20:31:06.257Z,51.61
2022-08-16T20:33:34.014Z,51.46
2022-08-16T20:36:00.484Z,51.52
2022-08-16T20:38:27.147Z,51.50
2022-08-16T20:40:53.653Z,51.74
2022-08-16T20:43:20.219Z,51.88
2022-08-16T20:45:47.120Z,52.07
2022-08-16T20:48:14.142Z,51.98
2022-08-16T20:50:41.963Z,52.07
2022-08-16T20:53:08.515Z,52.12
2022-08-16T20:55:36.749Z,52.33
2022-08-16T20:58:03.708Z,52.48
2022-08-16T21:00:30.192Z,52.30
2022-08-16T21:02:56.649Z,52.63
2022-08-16T21:05:27.868Z,52.94
2022-08-16T21:08:00.051Z,52.64
2022-08-16T21:10:27.397Z,52.80
2022-08-16T21:12:56.012Z,52.80
2022-08-16T21:15:24.481Z,52.55
2022-08-16T21:17:51.041Z,52.69
2022-08-16T21:20:17.961Z,52.65
2022-08-16T21:22:52.587Z,52.65
2022-08-16T21:25:23.942Z,52.73
2022-08-16T21:28:36.843Z,52.76
2022-08-16T21:30:39.528Z,52.56
2022-08-16T21:33:08.126Z,52.62
2022-08-16T21:35:35.670Z,52.56
2022-08-16T21:38:28.092Z,52.53
2022-08-16T21:40:50.342Z,52.63
2022-08-16T21:43:20.993Z,52.50
2022-08-16T21:45:47.774Z,52.44
2022-08-16T21:48:18.408Z,52.59
2022-08-16T21:51:01.286Z,52.59
2022-08-16T21:53:28.241Z,52.59
2022-08-16T21:55:57.997Z,52.58
2022-08-16T21:58:25.210Z,52.51
2022-08-16T22:00:52.113Z,52.50
2022-08-16T22:03:19.015Z,52.69
2022-08-16T22:06:00.109Z,52.59
2022-08-16T22:08:33.564Z,52.72
2022-08-16T22:11:06.421Z,52.73
2022-08-16T22:13:35.509Z,52.85
2022-08-16T22:16:07.113Z,52.85
2022-08-16T22:18:33.650Z,52.57
2022-08-16T22:21:00.090Z,52.91
2022-08-16T22:23:26.897Z,52.94
2022-08-16T22:25:55.095Z,53.04
2022-08-16T22:28:23.897Z,53.01
2022-08-16T22:30:51.113Z,53.05
2022-08-16T22:33:19.782Z,53.12
2022-08-16T22:35:48.602Z,53.30
2022-08-16T22:38:54.905Z,53.13
2022-08-16T22:41:04.477Z,53.32
2022-08-16T22:43:32.459Z,53.36
2022-08-16T22:45:59.128Z,53.27
2022-08-16T22:48:25.603Z,53.39
2022-08-16T22:50:52.066Z,53.40
2022-08-16T22:53:18.812Z,53.30
2022-08-16T22:55:45.320Z,53.37
2022-08-16T22:58:12.312Z,53.58
2022-08-16T23:00:40.240Z,53.59
2022-08-16T23:03:09.804Z,53.65
2022-08-16T23:05:38.216Z,53.63
2022-08-16T23:08:05.810Z,53.63
2022-08-16T23:10:32.330Z,53.67
2022-08-16T23:13:02.486Z,53.67
2022-08-16T23:15:30.516Z,53.75
2022-08-16T23:18:00.110Z,53.73
2022-08-16T23:20:28.742Z,53.64
2022-08-16T23:23:19.034Z,53.68
2022-08-16T23:25:48.013Z,53.59
2022-08-16T23:28:14.753Z,53.82
2022-08-16T23:30:42.517Z,53.82
2022-08-16T23:33:12.731Z,53.74
2022-08-16T23:35:45.523Z,53.77
2022-08-16T23:38:38.303Z,53.80
2022-08-16T23:41:01.496Z,53.91
2022-08-16T23:43:31.321Z,53.83
2022-08-16T23:46:00.258Z,53.94
2022-08-16T23:48:31.839Z,54.05
2022-08-16T23:51:18.273Z,53.93
2022-08-16T23:53:45.015Z,54.10
2022-08-16T23:56:13.100Z,54.10
2022-08-16T23:58:41.771Z,54.06
